Time;durP1;ratioP1;P1;durP2;ratioP2;P2;SDS_P1;SDS_P2;PMS_P1;PMS_P2;Temp;Humidity;BMP_temperature;BMP_pressure;BME280_temperature;BME280_humidity;BME280_pressure;Samples;Min_cycle;Max_cycle;Signal;HPM_P1;HPM_P2
2021/06/05 00:02:08;;;;;;;7.20;3.30;;;;;;;;;;6332813;22;20026;-82
2021/06/05 00:04:33;;;;;;;5.78;3.15;;;;;;;;;;6306429;22;20003;-83
2021/06/05 00:06:59;;;;;;;5.25;3.15;;;;;;;;;;6332604;22;19995;-82
2021/06/05 00:09:24;;;;;;;4.40;3.10;;;;;;;;;;6330601;22;20014;-83
2021/06/05 00:11:50;;;;;;;4.45;3.03;;;;;;;;;;6333340;22;19996;-83
2021/06/05 00:14:15;;;;;;;4.13;2.97;;;;;;;;;;6305550;22;20025;-83
2021/06/05 00:16:44;;;;;;;3.72;2.90;;;;;;;;;;6332414;22;19995;-82
2021/06/05 00:19:11;;;;;;;4.25;3.15;;;;;;;;;;6332744;22;19994;-84
2021/06/05 00:21:36;;;;;;;5.30;2.95;;;;;;;;;;6332413;22;19983;-83
2021/06/05 00:24:02;;;;;;;4.35;3.30;;;;;;;;;;6307299;22;19995;-83
2021/06/05 00:26:29;;;;;;;5.93;3.08;;;;;;;;;;6332706;22;19988;-82
2021/06/05 00:28:55;;;;;;;6.10;3.40;;;;;;;;;;6307652;22;19995;-83
2021/06/05 00:31:21;;;;;;;6.63;3.22;;;;;;;;;;6307652;22;20035;-82
2021/06/05 00:33:46;;;;;;;3.70;2.97;;;;;;;;;;6334583;22;20002;-83
2021/06/05 00:36:12;;;;;;;3.97;3.20;;;;;;;;;;6333705;22;20002;-83
2021/06/05 00:38:38;;;;;;;3.70;3.20;;;;;;;;;;6333467;22;20063;-83
2021/06/05 00:41:05;;;;;;;4.18;3.42;;;;;;;;;;6333991;22;19999;-82
2021/06/05 00:43:34;;;;;;;7.20;3.88;;;;;;;;;;6333754;22;20025;-83
2021/06/05 00:46:00;;;;;;;6.60;3.38;;;;;;;;;;6334047;22;20022;-81
2021/06/05 00:48:25;;;;;;;6.00;3.30;;;;;;;;;;6334121;22;20003;-83
2021/06/05 00:50:51;;;;;;;5.35;3.63;;;;;;;;;;6333192;22;19995;-83
2021/06/05 00:53:18;;;;;;;5.20;3.60;;;;;;;;;;6333086;22;19991;-83
2021/06/05 00:55:45;;;;;;;5.07;3.50;;;;;;;;;;6332987;22;20293;-82
2021/06/05 00:58:10;;;;;;;6.90;3.70;;;;;;;;;;6332054;22;20429;-82
2021/06/05 01:00:47;;;;;;;7.78;4.20;;;;;;;;;;6333135;22;20002;-83
2021/06/05 01:03:13;;;;;;;6.65;4.13;;;;;;;;;;6332051;22;20065;-82
2021/06/05 01:05:40;;;;;;;8.00;4.00;;;;;;;;;;6332455;22;20083;-83
2021/06/05 01:08:16;;;;;;;7.82;4.45;;;;;;;;;;6332075;22;20003;-83
2021/06/05 01:10:43;;;;;;;6.18;3.70;;;;;;;;;;6306737;22;20008;-83
2021/06/05 01:13:19;;;;;;;8.30;4.43;;;;;;;;;;6333015;22;19998;-82
2021/06/05 01:15:55;;;;;;;6.07;4.10;;;;;;;;;;6332577;22;19992;-82
2021/06/05 01:18:20;;;;;;;5.90;5.03;;;;;;;;;;6305556;22;19995;-82
2021/06/05 01:21:01;;;;;;;6.80;5.97;;;;;;;;;;6306512;22;20040;-83
2021/06/05 01:23:32;;;;;;;6.88;5.72;;;;;;;;;;6305938;22;19999;-83
2021/06/05 01:25:57;;;;;;;8.75;5.80;;;;;;;;;;6331952;22;19991;-83
2021/06/05 01:28:30;;;;;;;7.10;5.88;;;;;;;;;;6332355;22;20002;-83
2021/06/05 01:30:57;;;;;;;9.57;5.82;;;;;;;;;;6332230;22;20062;-83
2021/06/05 01:33:24;;;;;;;7.93;5.72;;;;;;;;;;6330985;22;19995;-82
2021/06/05 01:35:51;;;;;;;7.75;6.05;;;;;;;;;;6331893;22;19995;-83
2021/06/05 01:38:17;;;;;;;8.38;6.28;;;;;;;;;;6331530;22;19988;-83
2021/06/05 01:40:44;;;;;;;10.05;6.72;;;;;;;;;;6331543;22;20018;-83
2021/06/05 01:43:10;;;;;;;9.45;6.45;;;;;;;;;;6330796;22;20305;-83
2021/06/05 01:45:37;;;;;;;8.88;5.90;;;;;;;;;;6329031;22;20006;-83
2021/06/05 01:48:03;;;;;;;8.43;5.75;;;;;;;;;;6331146;22;19995;-83
2021/06/05 01:50:31;;;;;;;6.03;5.43;;;;;;;;;;6329947;22;19999;-82
2021/06/05 01:53:04;;;;;;;7.97;4.97;;;;;;;;;;6330105;22;20018;-83
2021/06/05 01:55:32;;;;;;;5.85;4.97;;;;;;;;;;6329091;22;20029;-83
2021/06/05 01:57:59;;;;;;;7.20;5.13;;;;;;;;;;6304390;22;20010;-83
2021/06/05 02:00:27;;;;;;;6.25;5.03;;;;;;;;;;6329932;22;20007;-83
2021/06/05 02:02:53;;;;;;;5.68;4.80;;;;;;;;;;6331107;22;20024;-83
2021/06/05 02:05:19;;;;;;;9.85;4.82;;;;;;;;;;6334928;22;19999;-83
2021/06/05 02:07:45;;;;;;;8.07;5.28;;;;;;;;;;6309433;22;20002;-83
2021/06/05 02:10:11;;;;;;;8.43;5.03;;;;;;;;;;6335106;22;20015;-83
2021/06/05 02:12:37;;;;;;;5.63;4.43;;;;;;;;;;6332523;22;20049;-82
2021/06/05 02:15:05;;;;;;;6.20;5.60;;;;;;;;;;6330752;22;20003;-83
2021/06/05 02:17:32;;;;;;;5.10;4.60;;;;;;;;;;6330988;22;20078;-83
2021/06/05 02:20:03;;;;;;;10.25;4.93;;;;;;;;;;6331106;22;19995;-83
2021/06/05 02:22:30;;;;;;;8.45;6.53;;;;;;;;;;6329261;22;20022;-82
2021/06/05 02:24:58;;;;;;;9.05;6.15;;;;;;;;;;6329212;22;20017;-82
2021/06/05 02:27:26;;;;;;;6.03;4.95;;;;;;;;;;6331128;22;19995;-83
2021/06/05 02:29:52;;;;;;;8.52;5.63;;;;;;;;;;6329540;22;19999;-83
2021/06/05 02:32:19;;;;;;;7.60;5.45;;;;;;;;;;6328614;22;20007;-81
2021/06/05 02:34:46;;;;;;;6.38;5.70;;;;;;;;;;6327936;22;20010;-82
2021/06/05 02:37:13;;;;;;;8.32;6.00;;;;;;;;;;6328863;22;20029;-83
2021/06/05 02:39:40;;;;;;;8.00;5.40;;;;;;;;;;6327372;22;19995;-82
2021/06/05 02:42:13;;;;;;;7.13;5.20;;;;;;;;;;6328337;22;20325;-83
2021/06/05 02:44:41;;;;;;;8.93;7.53;;;;;;;;;;6328758;22;20052;-82
2021/06/05 02:47:07;;;;;;;9.65;6.97;;;;;;;;;;6328021;22;19979;-82
2021/06/05 02:49:34;;;;;;;7.03;5.93;;;;;;;;;;6327735;22;19999;-82
2021/06/05 02:52:03;;;;;;;7.80;6.45;;;;;;;;;;6328603;22;20021;-82
2021/06/05 02:54:29;;;;;;;10.25;5.93;;;;;;;;;;6328758;22;19975;-82
2021/06/05 02:56:55;;;;;;;8.95;6.05;;;;;;;;;;6328855;22;20010;-81
2021/06/05 02:59:21;;;;;;;5.95;5.38;;;;;;;;;;6327001;22;19999;-82
2021/06/05 03:01:46;;;;;;;10.45;5.35;;;;;;;;;;6327504;22;20004;-82
2021/06/05 03:04:12;;;;;;;6.57;5.43;;;;;;;;;;6328279;22;19996;-82
2021/06/05 03:06:37;;;;;;;13.48;5.60;;;;;;;;;;6329188;22;20047;-82
2021/06/05 03:09:04;;;;;;;6.65;5.30;;;;;;;;;;6303028;22;19991;-81
2021/06/05 03:11:30;;;;;;;6.82;5.90;;;;;;;;;;6328483;22;20033;-83
2021/06/05 03:13:55;;;;;;;6.85;5.30;;;;;;;;;;6329256;22;19995;-82
2021/06/05 03:16:22;;;;;;;8.18;5.25;;;;;;;;;;6329595;22;19991;-82
2021/06/05 03:18:47;;;;;;;6.72;5.35;;;;;;;;;;6303560;22;20038;-82
2021/06/05 03:21:16;;;;;;;5.65;4.88;;;;;;;;;;6331548;22;19999;-83
2021/06/05 03:23:41;;;;;;;11.95;5.47;;;;;;;;;;6332387;22;20305;-83
2021/06/05 03:26:07;;;;;;;6.32;5.22;;;;;;;;;;6332443;22;19999;-82
2021/06/05 03:28:34;;;;;;;7.90;4.95;;;;;;;;;;6332338;22;20051;-83
2021/06/05 03:31:00;;;;;;;8.52;5.10;;;;;;;;;;6332623;22;20007;-82
2021/06/05 03:33:26;;;;;;;5.53;4.90;;;;;;;;;;6306871;22;19998;-83
2021/06/05 03:35:52;;;;;;;7.35;5.40;;;;;;;;;;6333582;22;19987;-83
2021/06/05 03:38:18;;;;;;;6.70;5.47;;;;;;;;;;6333590;22;20050;-83
2021/06/05 03:40:43;;;;;;;7.80;5.38;;;;;;;;;;6334825;22;19995;-83
2021/06/05 03:43:09;;;;;;;6.75;4.60;;;;;;;;;;6307736;22;20090;-83
2021/06/05 03:45:34;;;;;;;11.35;5.40;;;;;;;;;;6333452;22;20003;-83
2021/06/05 03:48:00;;;;;;;7.80;4.95;;;;;;;;;;6334606;22;19995;-83
2021/06/05 03:50:29;;;;;;;6.88;5.38;;;;;;;;;;6334096;22;19987;-83
2021/06/05 03:52:55;;;;;;;9.40;5.30;;;;;;;;;;6334585;22;20007;-83
2021/06/05 03:55:20;;;;;;;8.93;5.50;;;;;;;;;;6334468;22;20007;-84
2021/06/05 03:57:47;;;;;;;6.40;5.18;;;;;;;;;;6310197;22;20035;-83
2021/06/05 04:00:14;;;;;;;6.32;5.00;;;;;;;;;;6309981;22;20053;-83
2021/06/05 04:02:40;;;;;;;8.32;4.80;;;;;;;;;;6308793;22;20000;-83
2021/06/05 04:05:06;;;;;;;5.22;4.72;;;;;;;;;;6336502;22;20000;-82
2021/06/05 04:07:31;;;;;;;9.32;4.55;;;;;;;;;;6336626;22;19987;-83
2021/06/05 04:09:57;;;;;;;8.98;5.30;;;;;;;;;;6335723;22;19983;-83
2021/06/05 04:12:22;;;;;;;9.65;4.82;;;;;;;;;;6310003;22;19991;-83
2021/06/05 04:14:48;;;;;;;6.03;4.93;;;;;;;;;;6309828;22;20101;-83
2021/06/05 04:17:13;;;;;;;8.75;5.60;;;;;;;;;;6335879;22;19995;-82
2021/06/05 04:19:39;;;;;;;6.88;5.10;;;;;;;;;;6310005;22;19987;-83
2021/06/05 04:22:06;;;;;;;7.40;5.28;;;;;;;;;;6309143;22;20063;-83
2021/06/05 04:24:31;;;;;;;8.55;4.90;;;;;;;;;;6309115;22;19989;-84
2021/06/05 04:26:57;;;;;;;7.40;5.20;;;;;;;;;;6335433;22;19979;-83
2021/06/05 04:29:24;;;;;;;8.40;4.88;;;;;;;;;;6335683;22;19995;-83
2021/06/05 04:31:52;;;;;;;7.68;4.95;;;;;;;;;;6309868;22;19995;-82
2021/06/05 04:34:17;;;;;;;8.10;4.85;;;;;;;;;;6336347;22;19995;-83
2021/06/05 04:36:43;;;;;;;7.15;4.85;;;;;;;;;;6336283;22;19996;-82
2021/06/05 04:39:08;;;;;;;7.13;4.50;;;;;;;;;;6309826;22;20006;-83
2021/06/05 04:41:34;;;;;;;5.75;4.38;;;;;;;;;;6309456;22;20029;-83
2021/06/05 04:43:59;;;;;;;10.85;4.53;;;;;;;;;;6309576;22;20054;-84
2021/06/05 04:46:26;;;;;;;6.07;4.53;;;;;;;;;;6336997;22;19995;-82
2021/06/05 04:48:51;;;;;;;6.70;4.50;;;;;;;;;;6336705;22;20038;-82
2021/06/05 04:51:17;;;;;;;8.88;5.10;;;;;;;;;;6336492;22;20011;-83
2021/06/05 04:53:43;;;;;;;7.68;4.70;;;;;;;;;;6309967;22;20003;-82
2021/06/05 04:56:09;;;;;;;7.50;5.03;;;;;;;;;;6336472;22;20021;-82
2021/06/05 04:58:34;;;;;;;5.32;4.68;;;;;;;;;;6336376;22;19995;-82
2021/06/05 05:01:00;;;;;;;9.15;5.07;;;;;;;;;;6310133;22;19999;-82
2021/06/05 05:03:26;;;;;;;7.25;4.90;;;;;;;;;;6336039;22;20057;-83
2021/06/05 05:05:53;;;;;;;9.43;5.80;;;;;;;;;;6336487;22;20006;-82
2021/06/05 05:08:19;;;;;;;9.32;5.18;;;;;;;;;;6335049;22;19991;-83
2021/06/05 05:10:46;;;;;;;7.22;5.68;;;;;;;;;;6335597;22;20007;-82
2021/06/05 05:13:13;;;;;;;6.90;5.30;;;;;;;;;;6308341;22;20002;-82
2021/06/05 05:15:40;;;;;;;7.63;5.45;;;;;;;;;;6337200;22;20003;-82
2021/06/05 05:18:05;;;;;;;8.38;5.32;;;;;;;;;;6337320;22;20014;-82
2021/06/05 05:20:32;;;;;;;9.07;5.22;;;;;;;;;;6310463;22;20026;-83
2021/06/05 05:22:58;;;;;;;8.98;5.25;;;;;;;;;;6336206;22;19988;-84
2021/06/05 05:25:23;;;;;;;7.95;5.30;;;;;;;;;;6336991;22;19998;-83
2021/06/05 06:03:59;;;;;;;8.82;4.40;;;;;;;;;;6308078;22;20080;-81
2021/06/05 06:06:29;;;;;;;6.13;3.83;;;;;;;;;;6279471;22;20023;-81
2021/06/05 06:08:54;;;;;;;8.68;4.50;;;;;;;;;;6321824;22;20007;-83
2021/06/05 06:13:56;;;;;;;5.28;3.75;;;;;;;;;;6273826;22;20075;-81
2021/06/05 06:16:21;;;;;;;7.68;3.90;;;;;;;;;;6273360;22;20007;-82
2021/06/05 06:18:47;;;;;;;6.38;3.80;;;;;;;;;;6304281;22;20009;-82
2021/06/05 06:57:20;;;;;;;6.82;4.80;;;;;;;;;;6281980;22;20014;-82
2021/06/05 06:59:46;;;;;;;10.20;5.28;;;;;;;;;;6307894;22;19984;-82
2021/06/05 07:07:22;;;;;;;6.18;3.75;;;;;;;;;;6282621;22;19911;-84
2021/06/05 07:09:47;;;;;;;6.88;3.47;;;;;;;;;;6334703;22;19998;-83
2021/06/05 07:12:14;;;;;;;5.38;3.33;;;;;;;;;;6332758;22;20006;-82
2021/06/05 07:17:27;;;;;;;7.53;3.22;;;;;;;;;;6330342;22;19999;-82
2021/06/05 07:20:00;;;;;;;4.78;3.28;;;;;;;;;;6335807;22;19984;-82
2021/06/05 07:24:53;;;;;;;4.72;3.00;;;;;;;;;;6240355;22;19938;-83
2021/06/05 07:27:19;;;;;;;4.80;3.05;;;;;;;;;;6243170;22;19988;-83
2021/06/05 07:29:44;;;;;;;5.82;2.97;;;;;;;;;;6246224;22;20006;-81
2021/06/05 07:34:46;;;;;;;7.95;3.60;;;;;;;;;;6308467;22;20029;-82
2021/06/05 07:42:22;;;;;;;7.68;3.22;;;;;;;;;;6245246;22;20005;-84
2021/06/05 07:44:47;;;;;;;8.23;3.10;;;;;;;;;;6217960;23;20015;-82
2021/06/05 07:47:13;;;;;;;6.43;3.20;;;;;;;;;;6210402;23;19997;-81
2021/06/05 07:49:39;;;;;;;6.20;3.58;;;;;;;;;;6215137;23;20005;-83
2021/06/05 07:54:39;;;;;;;6.05;3.70;;;;;;;;;;6303764;22;20003;-82
2021/06/05 07:57:05;;;;;;;6.15;4.22;;;;;;;;;;6310627;22;19999;-83
2021/06/05 07:59:30;;;;;;;9.05;4.10;;;;;;;;;;6311140;22;19987;-82
2021/06/05 08:01:56;;;;;;;6.40;3.60;;;;;;;;;;6337261;22;20092;-81
2021/06/05 08:04:22;;;;;;;3.92;3.28;;;;;;;;;;6225619;22;20004;-82
2021/06/05 08:06:48;;;;;;;3.90;3.10;;;;;;;;;;6249986;23;19985;-83
2021/06/05 08:09:13;;;;;;;6.30;3.38;;;;;;;;;;6276196;22;19988;-82
2021/06/05 08:11:39;;;;;;;10.57;4.00;;;;;;;;;;6276051;22;20047;-84
2021/06/05 08:14:05;;;;;;;5.18;3.90;;;;;;;;;;6258202;22;20023;-83
2021/06/05 08:21:39;;;;;;;5.05;3.30;;;;;;;;;;6272852;22;19923;-84
2021/06/05 08:24:06;;;;;;;5.82;3.67;;;;;;;;;;6275165;23;19996;-84
2021/06/05 08:26:34;;;;;;;4.45;3.20;;;;;;;;;;6274806;22;20000;-84
2021/06/05 08:28:59;;;;;;;7.03;3.42;;;;;;;;;;6275231;22;20012;-83
2021/06/05 08:31:25;;;;;;;7.28;3.45;;;;;;;;;;6248601;22;19992;-83
2021/06/05 08:33:50;;;;;;;4.85;2.75;;;;;;;;;;6274817;22;19990;-84
2021/06/05 08:36:20;;;;;;;3.90;2.92;;;;;;;;;;6249768;23;19996;-84
2021/06/05 08:46:39;;;;;;;5.82;4.10;;;;;;;;;;6285534;22;19919;-83
2021/06/05 08:51:49;;;;;;;7.10;5.18;;;;;;;;;;6312550;22;19937;-83
2021/06/05 08:54:20;;;;;;;7.30;5.10;;;;;;;;;;6309444;22;20010;-83
2021/06/05 08:56:50;;;;;;;7.38;5.28;;;;;;;;;;6311182;22;20019;-84
2021/06/05 08:59:19;;;;;;;8.68;5.05;;;;;;;;;;6306833;22;19994;-82
2021/06/05 09:01:48;;;;;;;7.13;4.70;;;;;;;;;;6305581;22;20014;-82
2021/06/05 10:58:25;;;;;;;5.68;2.30;;;;;;;;;;5071314;23;20080;-82
2021/06/05 11:00:51;;;;;;;4.25;2.65;;;;;;;;;;4957850;28;20048;-81
2021/06/05 11:06:11;;;;;;;4.47;2.33;;;;;;;;;;5241979;23;20058;-84
2021/06/05 11:08:42;;;;;;;6.05;2.22;;;;;;;;;;4996142;28;20417;-82
2021/06/05 11:11:08;;;;;;;6.03;2.30;;;;;;;;;;5350307;23;20026;-80
2021/06/05 11:16:02;;;;;;;6.18;2.47;;;;;;;;;;4975032;28;20032;-81
2021/06/05 11:41:45;;;;;;;2.78;2.20;;;;;;;;;;6030558;23;20010;-77
2021/06/05 12:39:25;;;;;;;3.20;2.10;;;;;;;;;;5972072;23;20053;-77
2021/06/05 12:57:23;;;;;;;6.15;2.15;;;;;;;;;;5655334;23;20018;-80
2021/06/05 13:12:41;;;;;;;4.85;2.00;;;;;;;;;;5843034;23;20070;-82
2021/06/05 13:22:48;;;;;;;3.05;2.30;;;;;;;;;;4959341;29;20036;-82
2021/06/05 13:25:20;;;;;;;4.93;2.80;;;;;;;;;;4959668;29;20027;-81
2021/06/05 13:28:01;;;;;;;5.55;3.10;;;;;;;;;;4958286;29;20016;-80
2021/06/05 13:30:33;;;;;;;3.67;2.80;;;;;;;;;;4941012;29;20016;-80
2021/06/05 13:32:58;;;;;;;4.90;2.97;;;;;;;;;;4956551;29;20019;-81
2021/06/05 13:35:25;;;;;;;4.40;2.97;;;;;;;;;;4956922;29;20012;-82
2021/06/05 13:37:55;;;;;;;7.18;3.40;;;;;;;;;;4957018;29;20030;-82
2021/06/05 13:40:21;;;;;;;3.78;3.10;;;;;;;;;;4940595;29;20141;-82
2021/06/05 13:42:47;;;;;;;7.00;3.33;;;;;;;;;;4955688;29;20023;-82
2021/06/05 13:45:15;;;;;;;4.90;2.90;;;;;;;;;;4951497;29;20023;-81
2021/06/05 13:47:40;;;;;;;4.72;2.95;;;;;;;;;;4935035;29;20035;-83
2021/06/05 13:50:06;;;;;;;4.70;2.75;;;;;;;;;;4933545;29;20028;-81
2021/06/05 13:52:33;;;;;;;6.53;2.50;;;;;;;;;;4950116;29;20079;-81
2021/06/05 13:55:05;;;;;;;5.88;4.72;;;;;;;;;;4919389;29;20450;-82
2021/06/05 13:57:31;;;;;;;5.82;4.47;;;;;;;;;;4959690;29;20016;-81
2021/06/05 13:59:57;;;;;;;7.30;5.10;;;;;;;;;;4958810;29;20556;-82
2021/06/05 14:02:23;;;;;;;5.40;4.95;;;;;;;;;;4958188;29;20019;-81
2021/06/05 14:04:51;;;;;;;5.55;3.45;;;;;;;;;;4958068;29;20026;-81
2021/06/05 14:07:18;;;;;;;5.50;3.10;;;;;;;;;;4941545;29;20026;-82
2021/06/05 14:09:45;;;;;;;5.20;3.05;;;;;;;;;;4972550;28;20055;-82
2021/06/05 14:12:13;;;;;;;6.05;3.17;;;;;;;;;;4957201;29;19992;-81
2021/06/05 14:14:39;;;;;;;3.55;3.17;;;;;;;;;;4948861;29;20068;-81
2021/06/05 14:17:05;;;;;;;5.72;3.40;;;;;;;;;;4955404;29;20024;-82
2021/06/05 14:19:30;;;;;;;4.50;3.38;;;;;;;;;;4956108;29;20079;-80
2021/06/05 14:21:56;;;;;;;6.97;3.20;;;;;;;;;;4943250;29;20048;-82
2021/06/05 14:24:21;;;;;;;4.82;3.35;;;;;;;;;;4937785;29;20453;-82
2021/06/05 14:26:47;;;;;;;5.82;3.30;;;;;;;;;;4937488;29;20024;-82
2021/06/05 14:29:12;;;;;;;6.60;3.50;;;;;;;;;;4941632;29;20024;-82
2021/06/05 14:31:38;;;;;;;5.80;5.00;;;;;;;;;;4938161;29;20039;-83
2021/06/05 14:34:03;;;;;;;7.35;4.30;;;;;;;;;;4940359;29;20039;-82
2021/06/05 14:36:28;;;;;;;6.18;4.63;;;;;;;;;;4928046;29;20004;-83
2021/06/05 14:38:54;;;;;;;5.85;3.80;;;;;;;;;;4941367;29;20036;-83
2021/06/05 14:41:19;;;;;;;6.93;3.88;;;;;;;;;;4939491;29;20044;-82
2021/06/05 14:48:55;;;;;;;3.83;3.50;;;;;;;;;;5231678;23;20061;-83
2021/06/05 14:51:20;;;;;;;8.18;3.70;;;;;;;;;;4921244;29;20033;-84
2021/06/05 14:56:24;;;;;;;4.28;3.40;;;;;;;;;;5310695;23;20045;-83
2021/06/05 17:02:51;;;;;;;6.32;3.15;;;;;;;;;;5884513;23;20054;-83
2021/06/05 18:15:04;;;;;;;4.13;2.80;;;;;;;;;;5880761;23;20027;-82
2021/06/05 18:17:30;;;;;;;4.80;3.10;;;;;;;;;;5128298;23;20019;-82
2021/06/05 18:27:39;;;;;;;6.15;2.80;;;;;;;;;;5002407;28;19906;-81
2021/06/05 18:30:06;;;;;;;6.43;3.17;;;;;;;;;;5016306;28;20074;-81
2021/06/05 18:32:31;;;;;;;6.25;2.90;;;;;;;;;;5013158;28;20022;-81
2021/06/05 18:34:57;;;;;;;5.47;3.08;;;;;;;;;;4993378;28;20034;-82
2021/06/05 18:47:35;;;;;;;7.13;3.58;;;;;;;;;;4991100;28;20055;-81
2021/06/05 18:50:01;;;;;;;7.47;3.38;;;;;;;;;;4979130;28;20023;-82
2021/06/05 18:55:02;;;;;;;6.10;3.50;;;;;;;;;;6046648;23;20634;-79
2021/06/05 19:05:13;;;;;;;5.80;3.10;;;;;;;;;;6099339;23;19927;-78
2021/06/05 19:15:24;;;;;;;6.15;3.00;;;;;;;;;;5032107;23;20013;-83
2021/06/05 19:17:50;;;;;;;5.80;3.22;;;;;;;;;;4996577;28;20018;-83
2021/06/05 19:20:16;;;;;;;4.43;3.00;;;;;;;;;;4994348;28;20075;-83
2021/06/05 19:22:42;;;;;;;3.90;3.30;;;;;;;;;;4994118;28;20023;-83
2021/06/05 19:25:09;;;;;;;4.80;3.10;;;;;;;;;;4992947;28;20033;-82
2021/06/05 19:27:35;;;;;;;5.47;3.13;;;;;;;;;;4979253;28;20015;-82
2021/06/05 19:35:13;;;;;;;4.45;2.92;;;;;;;;;;5550067;23;19906;-82
2021/06/05 19:37:38;;;;;;;5.18;3.03;;;;;;;;;;5001677;28;20026;-83
2021/06/05 19:40:05;;;;;;;5.03;2.95;;;;;;;;;;4981302;28;20019;-82
2021/06/05 19:42:30;;;;;;;4.28;2.83;;;;;;;;;;4990778;28;20060;-82
2021/06/05 19:44:55;;;;;;;7.95;3.15;;;;;;;;;;5001121;28;20050;-82
2021/06/05 19:47:21;;;;;;;8.77;3.20;;;;;;;;;;4993596;28;20026;-83
2021/06/05 19:49:46;;;;;;;4.50;2.95;;;;;;;;;;4981208;28;20033;-81
2021/06/05 19:52:12;;;;;;;3.50;3.20;;;;;;;;;;4981257;28;20020;-82
2021/06/05 19:54:37;;;;;;;8.70;3.20;;;;;;;;;;5154338;23;20666;-79
2021/06/05 19:57:04;;;;;;;5.30;3.10;;;;;;;;;;5241249;23;20048;-82
2021/06/05 19:59:29;;;;;;;4.30;3.03;;;;;;;;;;4956911;28;20136;-81
2021/06/05 20:01:59;;;;;;;5.55;3.10;;;;;;;;;;4974901;28;20038;-81
2021/06/05 20:04:25;;;;;;;5.07;3.17;;;;;;;;;;4963544;28;20042;-82
2021/06/05 20:06:50;;;;;;;5.00;3.17;;;;;;;;;;4994268;28;20007;-82
2021/06/05 20:09:16;;;;;;;4.70;2.95;;;;;;;;;;5000502;28;20050;-84
2021/06/05 20:11:42;;;;;;;5.68;3.10;;;;;;;;;;4968447;28;20007;-83
2021/06/05 20:14:08;;;;;;;11.73;3.40;;;;;;;;;;4999820;28;20003;-82
2021/06/05 20:16:34;;;;;;;5.40;2.92;;;;;;;;;;4988742;28;20378;-84
2021/06/05 20:21:35;;;;;;;4.45;3.17;;;;;;;;;;5408135;23;19928;-83
2021/06/05 20:24:02;;;;;;;7.22;3.63;;;;;;;;;;5003952;28;20013;-83
2021/06/05 20:26:28;;;;;;;5.22;3.40;;;;;;;;;;5020714;28;20020;-83
2021/06/05 20:28:53;;;;;;;5.80;3.40;;;;;;;;;;4998767;28;20035;-82
2021/06/05 20:31:19;;;;;;;6.20;3.20;;;;;;;;;;5006229;28;20022;-81
2021/06/05 20:33:44;;;;;;;8.38;3.60;;;;;;;;;;5011646;28;20014;-82
2021/06/05 20:36:11;;;;;;;4.28;3.33;;;;;;;;;;5010225;28;20021;-80
2021/06/05 20:38:37;;;;;;;5.95;3.60;;;;;;;;;;5012703;28;20026;-80
2021/06/05 20:41:02;;;;;;;6.55;3.45;;;;;;;;;;4986150;28;20045;-81
2021/06/05 20:43:28;;;;;;;5.88;3.30;;;;;;;;;;5006717;28;20018;-82
2021/06/05 20:46:02;;;;;;;5.35;3.35;;;;;;;;;;5009846;28;20010;-81
2021/06/05 20:48:33;;;;;;;4.80;3.40;;;;;;;;;;5000982;28;20014;-81
2021/06/05 20:50:59;;;;;;;4.75;3.30;;;;;;;;;;5005550;28;20034;-81
2021/06/05 20:53:25;;;;;;;4.75;2.83;;;;;;;;;;4981470;28;20038;-83
2021/06/05 20:55:50;;;;;;;6.22;2.92;;;;;;;;;;5015503;28;20030;-82
2021/06/05 20:58:16;;;;;;;3.53;2.90;;;;;;;;;;4993274;28;20049;-83
2021/06/05 21:00:43;;;;;;;3.83;2.90;;;;;;;;;;4990450;28;20098;-82
2021/06/05 21:03:11;;;;;;;6.38;2.90;;;;;;;;;;5000807;28;20023;-81
2021/06/05 21:05:37;;;;;;;4.82;3.20;;;;;;;;;;4985369;28;20003;-83
2021/06/05 21:08:02;;;;;;;3.65;3.10;;;;;;;;;;5009868;28;20022;-82
2021/06/05 21:10:28;;;;;;;3.80;3.10;;;;;;;;;;4981202;28;20023;-82
2021/06/05 21:12:53;;;;;;;4.68;3.00;;;;;;;;;;4993874;28;20026;-81
2021/06/05 21:15:20;;;;;;;6.90;3.00;;;;;;;;;;4977447;28;20027;-81
2021/06/05 21:17:45;;;;;;;4.82;3.15;;;;;;;;;;4982713;28;20034;-81
2021/06/05 21:20:12;;;;;;;4.10;3.00;;;;;;;;;;4977117;28;20061;-81
2021/06/05 21:22:37;;;;;;;5.53;3.03;;;;;;;;;;5000874;28;20049;-83
2021/06/05 21:25:03;;;;;;;7.07;3.30;;;;;;;;;;4999061;28;20026;-82
2021/06/05 21:27:28;;;;;;;4.82;3.28;;;;;;;;;;4998996;28;20113;-82
2021/06/05 21:29:53;;;;;;;4.95;3.20;;;;;;;;;;4972107;28;20022;-81
2021/06/05 21:32:20;;;;;;;4.20;3.30;;;;;;;;;;4978587;28;20041;-82
2021/06/05 21:34:45;;;;;;;3.92;2.55;;;;;;;;;;4992529;28;20023;-82
2021/06/05 21:39:46;;;;;;;5.78;3.00;;;;;;;;;;5641307;23;20251;-84
2021/06/05 21:42:13;;;;;;;5.82;3.10;;;;;;;;;;4981352;28;20053;-82
2021/06/05 21:47:13;;;;;;;5.13;3.30;;;;;;;;;;5075391;23;20055;-83
2021/06/05 21:49:39;;;;;;;5.38;3.30;;;;;;;;;;4978799;28;20034;-83
2021/06/05 21:54:36;;;;;;;4.88;3.40;;;;;;;;;;4964384;28;20058;-81
2021/06/05 21:57:02;;;;;;;5.57;3.38;;;;;;;;;;4964657;29;20027;-83
2021/06/05 21:59:27;;;;;;;4.65;3.35;;;;;;;;;;4950925;29;20051;-82
2021/06/05 22:01:52;;;;;;;6.80;3.30;;;;;;;;;;4949146;29;20034;-82
2021/06/05 22:04:19;;;;;;;3.80;3.30;;;;;;;;;;4949319;29;20039;-83
2021/06/05 22:06:45;;;;;;;3.78;3.10;;;;;;;;;;4949145;29;20022;-83
2021/06/05 22:09:14;;;;;;;3.55;2.88;;;;;;;;;;4966524;28;20029;-83
2021/06/05 22:11:42;;;;;;;4.32;3.08;;;;;;;;;;4950020;29;20027;-83
2021/06/05 22:14:10;;;;;;;6.35;3.50;;;;;;;;;;4950194;29;20055;-83
2021/06/05 22:16:57;;;;;;;3.45;3.15;;;;;;;;;;4950469;29;20027;-83
2021/06/05 22:19:22;;;;;;;6.13;3.30;;;;;;;;;;4951093;29;20023;-82
2021/06/05 22:21:52;;;;;;;6.38;3.63;;;;;;;;;;4953236;29;20067;-83
2021/06/05 22:24:18;;;;;;;6.07;3.33;;;;;;;;;;4977799;29;20038;-84
2021/06/05 22:26:43;;;;;;;5.18;3.28;;;;;;;;;;4952797;29;20004;-84
2021/06/05 22:29:14;;;;;;;5.47;3.25;;;;;;;;;;4977262;29;20086;-84
2021/06/05 22:31:40;;;;;;;8.50;3.47;;;;;;;;;;4961487;29;20023;-84
2021/06/05 22:34:05;;;;;;;4.90;3.63;;;;;;;;;;4961262;29;20029;-84
2021/06/05 22:36:30;;;;;;;5.78;3.50;;;;;;;;;;4960666;29;20027;-84
2021/06/05 22:38:56;;;;;;;5.00;3.72;;;;;;;;;;4945176;29;20038;-83
2021/06/05 22:41:21;;;;;;;5.13;3.50;;;;;;;;;;4960899;29;20015;-84
2021/06/05 22:43:47;;;;;;;5.40;3.33;;;;;;;;;;4962058;29;20026;-83
2021/06/05 22:46:14;;;;;;;4.50;3.65;;;;;;;;;;4961903;29;20047;-82
2021/06/05 22:48:40;;;;;;;5.10;3.50;;;;;;;;;;4959525;29;20031;-82
2021/06/05 22:51:06;;;;;;;4.07;3.30;;;;;;;;;;4960870;29;20019;-81
2021/06/05 22:53:32;;;;;;;3.88;3.17;;;;;;;;;;4975205;28;20082;-82
2021/06/05 22:55:57;;;;;;;4.88;3.45;;;;;;;;;;4975642;29;20031;-82
2021/06/05 22:58:24;;;;;;;6.60;4.22;;;;;;;;;;4944254;29;20023;-83
2021/06/05 23:00:50;;;;;;;4.10;3.35;;;;;;;;;;4974741;29;20062;-84
2021/06/05 23:03:21;;;;;;;5.13;3.40;;;;;;;;;;4959498;29;20019;-82
2021/06/05 23:05:47;;;;;;;3.97;3.13;;;;;;;;;;4958533;29;20016;-82
2021/06/05 23:08:14;;;;;;;4.32;3.10;;;;;;;;;;4960178;29;20074;-82
2021/06/05 23:10:39;;;;;;;10.60;3.83;;;;;;;;;;4959818;29;20026;-82
2021/06/05 23:13:06;;;;;;;4.40;3.20;;;;;;;;;;4976927;29;20024;-81
2021/06/05 23:15:31;;;;;;;5.97;3.50;;;;;;;;;;4976886;29;20071;-82
2021/06/05 23:17:56;;;;;;;8.95;3.35;;;;;;;;;;4976757;28;20034;-82
2021/06/05 23:20:24;;;;;;;5.53;3.50;;;;;;;;;;4975560;29;20055;-82
2021/06/05 23:22:50;;;;;;;6.03;3.33;;;;;;;;;;4976645;29;20019;-81
2021/06/05 23:25:17;;;;;;;4.63;3.33;;;;;;;;;;4943369;29;20020;-81
2021/06/05 23:27:42;;;;;;;4.45;3.60;;;;;;;;;;4974682;29;20046;-82
2021/06/05 23:30:08;;;;;;;3.70;3.17;;;;;;;;;;4957817;29;20028;-82
2021/06/05 23:32:34;;;;;;;7.43;3.40;;;;;;;;;;4959380;29;20030;-81
2021/06/05 23:34:59;;;;;;;6.05;3.42;;;;;;;;;;4959184;29;20019;-82
2021/06/05 23:37:25;;;;;;;4.68;3.53;;;;;;;;;;4959739;29;20046;-82
2021/06/05 23:39:50;;;;;;;6.10;3.85;;;;;;;;;;4959110;29;20000;-81
2021/06/05 23:42:15;;;;;;;4.80;3.35;;;;;;;;;;4959608;29;20022;-82
2021/06/05 23:44:41;;;;;;;7.28;3.70;;;;;;;;;;4960567;29;20038;-82
2021/06/05 23:47:06;;;;;;;4.85;3.50;;;;;;;;;;4959432;28;20028;-82
2021/06/05 23:49:31;;;;;;;4.90;3.50;;;;;;;;;;4962181;29;20008;-83
2021/06/05 23:51:57;;;;;;;6.35;3.40;;;;;;;;;;4974308;29;20023;-81
2021/06/05 23:54:22;;;;;;;6.25;3.45;;;;;;;;;;4962736;29;20051;-81
2021/06/05 23:56:47;;;;;;;6.10;3.45;;;;;;;;;;4979173;29;20027;-82
2021/06/05 23:59:13;;;;;;;3.60;3.00;;;;;;;;;;4962426;29;20027;-82
